createdAt,value
2024-04-21T00:00:55.215Z,-22277.00
2024-04-21T00:02:57.049Z,-23260.47
2024-04-21T00:04:58.995Z,-23260.81
2024-04-21T00:07:03.802Z,-23263.03
2024-04-21T00:09:05.556Z,-23261.59
2024-04-21T00:11:07.429Z,-23263.50
2024-04-21T00:13:09.412Z,-23265.25
2024-04-21T00:15:11.334Z,-23261.44
2024-04-21T00:17:14.130Z,-23261.44
2024-04-21T00:19:17.308Z,-23261.75
2024-04-21T00:21:19.242Z,-23265.59
2024-04-21T00:23:23.703Z,-23266.22
2024-04-21T00:25:25.678Z,-23265.59
2024-04-21T00:27:27.471Z,-23267.50
2024-04-21T00:29:29.311Z,-23266.38
2024-04-21T00:31:31.336Z,-23264.47
2024-04-21T00:33:33.131Z,-23265.75
2024-04-21T00:35:35.073Z,-23267.81
2024-04-21T00:37:36.971Z,-23267.97
2024-04-21T00:39:42.196Z,-23268.13
2024-04-21T00:41:44.122Z,-23267.97
2024-04-21T00:43:45.947Z,-23266.88
2024-04-21T00:45:48.373Z,-23266.53
2024-04-21T00:47:50.355Z,-23269.25
2024-04-21T00:49:52.542Z,-23269.09
2024-04-21T00:51:54.736Z,-23266.53
2024-04-21T00:53:57.140Z,-23267.81
2024-04-21T00:56:02.530Z,-23265.75
2024-04-21T00:58:05.094Z,-23268.13
2024-04-21T01:00:11.467Z,-23269.72
2024-04-21T01:02:13.333Z,-23271.31
2024-04-21T01:04:15.447Z,-23273.56
2024-04-21T01:06:17.414Z,-23273.22
2024-04-21T01:08:19.322Z,-23271.00
2024-04-21T01:10:21.150Z,-23271.31
2024-04-21T01:12:25.659Z,-23269.41
2024-04-21T01:14:27.645Z,-23268.78
2024-04-21T01:16:29.626Z,-23275.31
2024-04-21T01:18:31.423Z,-23271.00
2024-04-21T01:20:35.492Z,-23272.59
2024-04-21T01:22:42.910Z,-23273.56
2024-04-21T01:24:44.716Z,-23270.38
2024-04-21T01:26:46.569Z,-23272.91
2024-04-21T01:28:48.452Z,-23271.31
2024-04-21T01:30:50.418Z,-23273.41
2024-04-21T01:32:52.496Z,-23275.78
2024-04-21T01:34:54.507Z,-23270.84
2024-04-21T01:36:56.268Z,-23276.44
2024-04-21T01:39:01.228Z,-23270.38
2024-04-21T01:41:03.268Z,-23271.97
2024-04-21T01:43:05.277Z,-23275.78
2024-04-21T01:45:07.976Z,-23276.91
2024-04-21T01:47:09.909Z,-23278.03
2024-04-21T01:49:11.783Z,-23273.88
2024-04-21T01:51:13.648Z,-23278.03
2024-04-21T01:53:16.075Z,-23272.91
2024-04-21T01:55:20.728Z,-23275.78
2024-04-21T01:57:25.002Z,-23275.00
2024-04-21T01:59:26.930Z,-23276.09
2024-04-21T02:01:28.791Z,-23275.00
2024-04-21T02:03:30.888Z,-23275.78
2024-04-21T02:05:32.906Z,-23277.38
2024-04-21T02:07:34.829Z,-23280.25
2024-04-21T02:09:36.759Z,-23279.59
2024-04-21T02:11:41.364Z,-23279.28
2024-04-21T02:13:43.264Z,-23278.03
2024-04-21T02:15:50.099Z,-23282.94
2024-04-21T02:17:52.000Z,-23279.13
2024-04-21T02:19:53.787Z,-23282.63
2024-04-21T02:21:55.801Z,-23281.38
2024-04-21T02:23:57.647Z,-23280.56
2024-04-21T02:25:59.852Z,-23279.28
2024-04-21T02:28:04.909Z,-23279.94
2024-04-21T02:30:08.301Z,-23282.16
2024-04-21T02:32:10.167Z,-23283.75
2024-04-21T02:34:12.036Z,-23281.19
2024-04-21T02:36:13.937Z,-23285.34
2024-04-21T02:38:15.694Z,-23287.25
2024-04-21T02:40:17.752Z,-23286.16
2024-04-21T02:42:19.576Z,-23281.53
2024-04-21T02:44:24.100Z,-23284.06
2024-04-21T02:46:26.043Z,-23281.84
2024-04-21T02:48:28.052Z,-23280.72
2024-04-21T02:50:29.916Z,-23286.47
2024-04-21T02:52:31.735Z,-23282.63
2024-04-21T02:54:33.691Z,-23280.25
2024-04-21T02:56:35.511Z,-23285.66
2024-04-21T02:58:37.476Z,-23285.66
2024-04-21T03:00:41.904Z,-23286.31
2024-04-21T03:02:43.875Z,-23287.75
2024-04-21T03:04:45.978Z,-23286.31
2024-04-21T03:06:47.949Z,-23287.91
2024-04-21T03:08:49.906Z,-23288.53
2024-04-21T03:10:51.683Z,-23285.66
2024-04-21T03:12:53.605Z,-23286.94
2024-04-21T03:14:55.419Z,-23286.47
2024-04-21T03:16:59.824Z,-23284.22
2024-04-21T03:19:02.507Z,-23181.88
2024-04-21T03:21:04.556Z,-18893.06
2024-04-21T03:23:06.410Z,-10499.03
2024-04-21T03:25:08.423Z,2178.44
2024-04-21T03:27:10.377Z,12247.94
2024-04-21T03:29:12.129Z,19250.69
2024-04-21T03:31:13.973Z,22349.25
2024-04-21T03:33:18.554Z,25751.13
2024-04-21T03:35:20.561Z,29063.06
2024-04-21T03:37:22.553Z,28785.47
2024-04-21T03:39:24.414Z,31198.34
2024-04-21T03:41:26.362Z,31079.13
2024-04-21T03:43:28.226Z,31209.50
2024-04-21T03:45:29.974Z,30288.19
2024-04-21T03:47:32.024Z,30284.56
2024-04-21T03:49:36.688Z,32159.81
2024-04-21T03:51:38.534Z,35488.91
2024-04-21T03:53:40.382Z,36214.00
2024-04-21T03:55:42.129Z,36617.88
2024-04-21T03:57:44.000Z,38356.91
2024-04-21T03:59:45.831Z,39974.22
2024-04-21T04:01:47.639Z,39979.97
2024-04-21T04:03:49.740Z,40844.28
2024-04-21T04:05:54.378Z,43039.72
2024-04-21T04:07:56.281Z,43610.97
2024-04-21T04:09:58.185Z,44929.50
2024-04-21T04:12:00.069Z,45938.47
2024-04-21T04:14:01.836Z,46812.53
2024-04-21T04:16:04.008Z,47112.22
2024-04-21T04:18:05.872Z,47319.56
2024-04-21T04:20:08.570Z,48937.41
2024-04-21T04:22:13.001Z,48498.81
2024-04-21T04:24:14.913Z,49073.81
2024-04-21T04:26:16.675Z,48299.88
2024-04-21T04:28:19.571Z,47836.03
2024-04-21T04:30:21.390Z,46793.91
2024-04-21T04:32:23.225Z,48496.09
2024-04-21T04:34:25.056Z,47815.81
2024-04-21T04:36:26.979Z,46101.25
2024-04-21T04:38:31.366Z,45690.31
2024-04-21T04:40:33.210Z,44559.25
2024-04-21T04:42:35.095Z,44199.50
2024-04-21T04:44:36.827Z,42617.78
2024-04-21T04:46:38.717Z,42157.94
2024-04-21T04:48:40.513Z,41893.56
2024-04-21T04:50:42.254Z,41705.09
2024-04-21T04:52:44.112Z,40699.06
2024-04-21T04:54:48.645Z,41474.22
2024-04-21T04:56:53.504Z,41959.69
2024-04-21T04:58:55.328Z,41043.88
2024-04-21T05:00:57.231Z,41741.50
2024-04-21T05:02:59.129Z,40428.84
2024-04-21T05:05:01.068Z,39724.00
2024-04-21T05:07:03.120Z,39880.81
2024-04-21T05:09:05.040Z,40252.59
2024-04-21T05:11:09.496Z,40341.69
2024-04-21T05:13:11.644Z,38908.28
2024-04-21T05:15:13.462Z,39300.72
2024-04-21T05:17:15.359Z,39937.44
2024-04-21T05:19:17.446Z,39582.19
2024-04-21T05:21:19.255Z,36869.91
2024-04-21T05:23:20.973Z,35924.28
2024-04-21T05:25:22.850Z,35871.72
2024-04-21T05:27:27.233Z,35080.38
2024-04-21T05:29:29.227Z,35392.59
2024-04-21T05:31:31.064Z,34681.25
2024-04-21T05:33:32.863Z,32979.28
2024-04-21T05:35:34.702Z,33809.84
2024-04-21T05:37:36.566Z,31248.06
2024-04-21T05:39:38.410Z,29594.84
2024-04-21T05:41:40.416Z,31261.81
2024-04-21T05:43:46.994Z,31108.28
2024-04-21T05:45:48.934Z,32947.16
2024-04-21T05:47:50.876Z,31704.09
2024-04-21T05:49:52.845Z,27171.03
2024-04-21T05:51:54.679Z,23797.56
2024-04-21T05:53:58.322Z,20819.16
2024-04-21T05:56:00.385Z,18318.19
2024-04-21T05:58:02.388Z,17396.06
2024-04-21T06:00:07.956Z,15823.84
2024-04-21T06:02:09.840Z,16769.41
2024-04-21T06:04:11.868Z,15997.97
2024-04-21T06:06:13.639Z,13719.03
2024-04-21T06:08:15.509Z,14610.06
2024-04-21T06:10:17.381Z,16270.41
2024-04-21T06:12:19.266Z,15211.00
2024-04-21T06:14:21.319Z,15406.28
2024-04-21T06:16:25.861Z,13387.75
2024-04-21T06:18:27.853Z,12674.03
2024-04-21T06:20:29.826Z,10662.38
2024-04-21T06:22:31.577Z,6568.97
2024-04-21T06:24:33.448Z,2418.34
2024-04-21T06:26:35.342Z,4174.00
2024-04-21T06:28:37.122Z,-1586.91
2024-04-21T06:30:38.956Z,-6275.63
2024-04-21T06:32:43.454Z,-18510.13
2024-04-21T06:34:45.350Z,-22327.06
2024-04-21T06:36:47.164Z,-23257.78
2024-04-21T06:38:49.088Z,-23264.94
2024-04-21T06:40:50.929Z,-23270.84
2024-04-21T06:42:52.750Z,-23269.41
2024-04-21T06:44:54.535Z,-23269.41
2024-04-21T06:46:56.440Z,-23272.91
2024-04-21T06:49:00.870Z,-23265.25
2024-04-21T06:51:02.966Z,-23257.63
2024-04-21T06:53:04.910Z,-22941.00
2024-04-21T06:55:07.440Z,-22654.31
2024-04-21T06:57:09.258Z,-18466.59
2024-04-21T06:59:11.047Z,-15179.16
2024-04-21T07:01:12.889Z,-16370.75
2024-04-21T07:03:14.861Z,-15918.25
2024-04-21T07:05:19.338Z,-15683.16
2024-04-21T07:07:21.267Z,-19901.84
2024-04-21T07:09:23.174Z,-17076.50
2024-04-21T07:11:25.433Z,-21926.78
2024-04-21T07:13:27.349Z,-20538.63
2024-04-21T07:15:29.267Z,-22921.94
2024-04-21T07:17:31.410Z,-23272.91
2024-04-21T07:19:33.523Z,-23270.38
2024-04-21T07:21:38.007Z,-23282.47
2024-04-21T07:23:39.768Z,-23280.56
2024-04-21T07:25:41.622Z,-23280.09
2024-04-21T07:27:43.415Z,-23287.41
2024-04-21T07:29:45.197Z,-23284.06
2024-04-21T07:31:47.098Z,-23277.69
2024-04-21T07:33:48.869Z,-23287.41
2024-04-21T07:35:50.855Z,-23273.88
2024-04-21T07:37:55.177Z,-23292.34
2024-04-21T07:39:57.285Z,-23293.00
2024-04-21T07:41:59.177Z,-23282.63
2024-04-21T07:44:01.090Z,-23280.56
2024-04-21T07:46:03.636Z,-23274.19
2024-04-21T07:48:06.448Z,-23285.81
2024-04-21T07:50:08.438Z,-23285.97
2024-04-21T07:52:10.274Z,-23290.75
2024-04-21T07:54:15.025Z,-23283.91
2024-04-21T07:56:16.924Z,-23285.97
2024-04-21T07:58:18.733Z,-23282.47
2024-04-21T08:00:20.568Z,-23299.53
2024-04-21T08:02:22.415Z,-23292.84
2024-04-21T08:04:24.404Z,-23297.78
2024-04-21T08:06:26.237Z,-23296.81
2024-04-21T08:08:28.068Z,-23305.75
2024-04-21T08:10:33.111Z,-23308.28
2024-04-21T08:12:36.571Z,-23311.47
2024-04-21T08:14:39.312Z,-23318.97
2024-04-21T08:16:41.259Z,-23307.66
2024-04-21T08:18:43.531Z,-23313.06
2024-04-21T08:20:47.429Z,-23293.00
2024-04-21T08:22:50.671Z,-23301.59
2024-04-21T08:24:52.533Z,-23292.69
2024-04-21T08:26:56.914Z,-23296.81
2024-04-21T08:28:58.672Z,-23294.75
2024-04-21T08:31:00.521Z,-23283.44
2024-04-21T08:33:02.563Z,-23282.81
2024-04-21T08:35:05.182Z,-23290.44
2024-04-21T08:37:07.008Z,-23286.31
2024-04-21T08:39:08.989Z,-23279.44
2024-04-21T08:41:14.574Z,-23292.03
2024-04-21T08:43:23.331Z,-23285.97
2024-04-21T08:45:28.112Z,-23283.91
2024-04-21T08:47:30.396Z,-23285.66
2024-04-21T08:49:32.420Z,-23296.19
2024-04-21T08:51:35.883Z,-23297.78
2024-04-21T08:53:38.080Z,-23299.69
2024-04-21T08:55:41.508Z,-23310.50
2024-04-21T08:57:43.605Z,-23311.94
2024-04-21T08:59:49.527Z,-23294.91
2024-04-21T09:01:52.264Z,-23300.63
2024-04-21T09:03:54.570Z,-23297.47
2024-04-21T09:06:00.349Z,-23299.84
2024-04-21T09:08:02.658Z,-23318.47
2024-04-21T09:10:05.124Z,-23328.19
2024-04-21T09:12:07.933Z,-23336.63
2024-04-21T09:14:12.205Z,-23328.66
2024-04-21T09:16:16.814Z,-23317.69
2024-04-21T09:18:18.714Z,-23316.25
2024-04-21T09:20:20.712Z,-23342.34
2024-04-21T09:22:22.807Z,-23354.28
2024-04-21T09:24:24.714Z,-23325.63
2024-04-21T09:26:26.504Z,-23330.88
2024-04-21T09:28:28.325Z,-23320.72
2024-04-21T09:30:30.186Z,-23312.09
2024-04-21T09:32:34.762Z,-23320.72
2024-04-21T09:34:37.288Z,-23318.47
2024-04-21T09:36:39.802Z,-23321.50
2024-04-21T09:38:42.630Z,-23315.28
2024-04-21T09:40:45.158Z,-23297.47
2024-04-21T09:42:49.919Z,-23299.22
2024-04-21T09:44:54.354Z,-23301.75
2024-04-21T09:46:58.107Z,-23314.81
2024-04-21T09:49:04.371Z,-23304.78
2024-04-21T09:51:06.856Z,-23314.03
2024-04-21T09:53:09.330Z,-23322.13
2024-04-21T09:55:11.281Z,-23313.69
2024-04-21T09:57:17.770Z,-23305.25
2024-04-21T09:59:23.196Z,-23317.19
2024-04-21T10:01:31.502Z,-23315.44
2024-04-21T10:03:38.512Z,-23336.47
2024-04-21T10:05:43.415Z,-23340.44
2024-04-21T10:07:46.681Z,-23318.47
2024-04-21T10:09:51.467Z,-23317.19
2024-04-21T10:11:53.714Z,-23334.25
2024-04-21T10:13:56.129Z,-23321.97
2024-04-21T10:15:58.014Z,-23325.81
2024-04-21T10:18:01.522Z,-23323.56
2024-04-21T10:20:04.611Z,-23341.72
2024-04-21T10:22:09.738Z,-23335.34
2024-04-21T10:24:13.342Z,-23336.78
2024-04-21T10:26:17.522Z,-23365.44
2024-04-21T10:28:26.987Z,-23350.63
2024-04-21T10:30:30.319Z,-23378.13
2024-04-21T10:32:32.120Z,-23394.03
2024-04-21T10:34:34.070Z,-23400.88
2024-04-21T10:36:44.048Z,-23394.19
2024-04-21T10:38:52.554Z,-23397.53
2024-04-21T10:40:57.274Z,-23394.81
2024-04-21T10:42:59.124Z,-23372.09
2024-04-21T10:45:01.244Z,-23383.69
2024-04-21T10:47:03.031Z,-23385.44
2024-04-21T10:49:05.659Z,-23405.00
2024-04-21T10:51:07.520Z,-23406.91
2024-04-21T10:53:09.485Z,-23384.03
2024-04-21T10:55:13.867Z,-23412.78
2024-04-21T10:57:16.137Z,-23415.16
2024-04-21T10:59:18.211Z,-23402.63
2024-04-21T11:01:20.038Z,-23390.84
2024-04-21T11:03:21.862Z,-23391.00
2024-04-21T11:05:27.580Z,-23391.97
2024-04-21T11:07:29.525Z,-23406.41
2024-04-21T11:09:31.501Z,-23415.63
2024-04-21T11:11:36.014Z,-23405.00
2024-04-21T11:13:37.818Z,-23408.97
2024-04-21T11:15:42.862Z,-23428.66
2024-04-21T11:17:44.818Z,-23423.09
2024-04-21T11:19:46.807Z,-23409.91
2024-04-21T11:21:48.992Z,-23408.81
2024-04-21T11:23:50.879Z,-23390.38
2024-04-21T11:25:54.780Z,-23367.00
2024-04-21T11:28:00.675Z,-23374.81
2024-04-21T11:30:03.394Z,-23370.66
2024-04-21T11:32:06.008Z,-23359.22
2024-04-21T11:34:07.776Z,-23353.50
2024-04-21T11:36:11.088Z,-23355.41
2024-04-21T11:38:13.093Z,-23349.19
2024-04-21T11:45:45.602Z,-23365.25
2024-04-21T11:47:47.445Z,-23368.75
2024-04-21T11:49:49.371Z,-23354.44
2024-04-21T11:51:51.215Z,-23352.53
2024-04-21T11:53:53.085Z,-23348.72
2024-04-21T11:55:54.914Z,-23342.66
2024-04-21T11:57:56.991Z,-23348.41
2024-04-21T12:00:00.227Z,-23357.31
2024-04-21T12:02:06.080Z,-23375.13
2024-04-21T12:04:08.013Z,-23378.31
2024-04-21T12:06:09.969Z,-23383.06
2024-04-21T12:08:12.394Z,-23389.75
2024-04-21T12:10:14.211Z,-23389.09
2024-04-21T12:12:16.363Z,-23385.28
2024-04-21T12:14:28.737Z,-23376.41
2024-04-21T12:16:30.905Z,-23379.88
2024-04-21T12:18:35.500Z,-23366.69
2024-04-21T12:20:37.758Z,-23360.16
2024-04-21T12:22:39.737Z,-23372.25
2024-04-21T12:24:43.704Z,-23358.44
2024-04-21T12:26:45.689Z,-23349.66
2024-04-21T12:28:47.600Z,-23349.50
2024-04-21T12:30:49.853Z,-23355.72
2024-04-21T12:32:52.259Z,-23358.59
2024-04-21T12:34:56.910Z,-23366.38
2024-04-21T12:36:58.830Z,-23361.94
2024-04-21T12:39:00.636Z,-23369.72
2024-04-21T12:41:02.454Z,-23368.44
2024-04-21T12:43:04.730Z,-23368.75
2024-04-21T12:45:08.759Z,-23373.69
2024-04-21T12:47:10.716Z,-23384.97
2024-04-21T12:49:12.652Z,-23374.50
2024-04-21T12:51:17.363Z,-23392.91
2024-04-21T12:53:19.455Z,-23393.09
2024-04-21T12:55:21.277Z,-23393.72
2024-04-21T12:57:23.167Z,-23397.06
2024-04-21T12:59:24.999Z,-23389.75
2024-04-21T13:01:27.002Z,-23382.44
2024-04-21T13:03:28.980Z,-23377.34
2024-04-21T13:05:30.859Z,-23380.84
2024-04-21T13:07:35.423Z,-23377.66
2024-04-21T13:09:37.196Z,-23384.97
2024-04-21T13:11:39.050Z,-23386.88
2024-04-21T13:13:40.910Z,-23396.09
2024-04-21T13:15:42.806Z,-23379.88
2024-04-21T13:17:46.388Z,-23377.66
2024-04-21T13:19:48.646Z,-23395.78
2024-04-21T13:21:50.899Z,-23398.16
2024-04-21T13:23:55.486Z,-23400.38
2024-04-21T13:25:57.330Z,-23383.69
2024-04-21T13:27:59.207Z,-23382.44
2024-04-21T13:30:01.004Z,-23392.59
2024-04-21T13:32:02.844Z,-23387.34
2024-04-21T13:34:04.717Z,-23392.28
2024-04-21T13:36:06.752Z,-23406.28
2024-04-21T13:38:08.602Z,-23404.34
2024-04-21T13:40:13.225Z,-23411.03
2024-04-21T13:42:15.070Z,-23405.31
2024-04-21T13:44:16.904Z,-23396.41
2024-04-21T13:46:18.765Z,-23396.09
2024-04-21T13:48:20.637Z,-23407.53
2024-04-21T13:50:22.514Z,-23401.81
2024-04-21T13:52:24.442Z,-23398.97
2024-04-21T13:54:26.267Z,-23404.19
2024-04-21T13:56:30.674Z,-23403.72
2024-04-21T13:58:32.602Z,-23418.81
2024-04-21T14:00:34.561Z,-23425.78
2024-04-21T14:02:36.358Z,-23425.31
2024-04-21T14:04:38.222Z,-23418.03
2024-04-21T14:06:40.070Z,-23403.72
2024-04-21T14:08:41.943Z,-23412.47
2024-04-21T14:10:44.091Z,-23416.75
2024-04-21T14:12:48.612Z,-23393.41
2024-04-21T14:14:50.430Z,-23394.66
2024-04-21T14:16:52.320Z,-23398.16
2024-04-21T14:18:56.268Z,-23395.16
2024-04-21T14:20:59.683Z,-23394.66
2024-04-21T14:23:01.669Z,-23392.91
2024-04-21T14:25:03.609Z,-23381.16
2024-04-21T14:27:05.458Z,-23377.34
2024-04-21T14:29:09.877Z,-23373.53
2024-04-21T14:31:11.803Z,-23373.38
2024-04-21T14:33:13.708Z,-23368.91
2024-04-21T14:35:15.762Z,-23368.75
2024-04-21T14:37:17.752Z,-23379.56
2024-04-21T14:39:19.514Z,-23377.19
2024-04-21T14:41:21.361Z,-23372.25
2024-04-21T14:43:23.224Z,-23376.72
2024-04-21T14:45:27.598Z,-23383.88
2024-04-21T14:47:29.519Z,-23374.50
2024-04-21T14:49:31.884Z,-23376.88
2024-04-21T14:51:33.669Z,-23378.31
2024-04-21T14:53:35.487Z,-23385.78
2024-04-21T14:55:41.550Z,-23383.69
2024-04-21T14:57:46.829Z,-23378.63
2024-04-21T14:59:49.793Z,-23373.53
2024-04-21T15:01:57.245Z,-23368.13
2024-04-21T15:03:59.164Z,-23356.84
2024-04-21T15:06:00.999Z,-23364.31
2024-04-21T15:08:02.794Z,-23370.19
2024-04-21T15:10:05.176Z,-23368.28
2024-04-21T15:12:07.400Z,-23362.06
2024-04-21T15:14:09.222Z,-23366.22
2024-04-21T15:16:11.062Z,-23353.50
2024-04-21T15:18:15.551Z,-23350.63
2024-04-21T15:20:17.364Z,-23344.59
2024-04-21T15:22:19.146Z,-23357.63
2024-04-21T15:24:21.050Z,-23364.31
2024-04-21T15:26:23.008Z,-23362.41
2024-04-21T15:28:24.949Z,-23368.75
2024-04-21T15:30:26.748Z,-23371.31
2024-04-21T15:32:28.614Z,-23370.81
2024-04-21T15:34:33.304Z,-23370.66
2024-04-21T15:36:35.083Z,-23364.00
2024-04-21T15:38:36.940Z,-23359.84
2024-04-21T15:40:38.896Z,-23370.34
2024-04-21T15:42:41.041Z,-23361.94
2024-04-21T15:44:42.822Z,-23369.41
2024-04-21T15:46:44.710Z,-23346.16
2024-04-21T15:48:46.520Z,-23357.47
2024-04-21T15:50:50.946Z,-23362.06
2024-04-21T15:52:52.767Z,-23351.91
2024-04-21T15:54:54.707Z,-23353.66
2024-04-21T15:56:56.566Z,-23354.13
2024-04-21T15:58:58.409Z,-23339.81
2024-04-21T16:01:00.291Z,-23333.91
2024-04-21T16:03:02.145Z,-23325.81
2024-04-21T16:05:04.450Z,-23321.50
2024-04-21T16:07:09.020Z,-23338.84
2024-04-21T16:09:10.764Z,-23340.28
2024-04-21T16:11:12.654Z,-23334.41
2024-04-21T16:13:14.567Z,-23334.06
2024-04-21T16:15:16.554Z,-23336.63
2024-04-21T16:17:18.736Z,-23339.66
2024-04-21T16:19:20.557Z,-23340.91
2024-04-21T16:21:23.320Z,-23341.72
2024-04-21T16:23:27.966Z,-23330.41
2024-04-21T16:25:33.122Z,-23328.66
2024-04-21T16:27:35.114Z,-23326.13
2024-04-21T16:29:36.925Z,-23342.66
2024-04-21T16:31:38.789Z,-23340.28
2024-04-21T16:33:41.223Z,-23334.41
2024-04-21T16:35:43.548Z,-23325.16
2024-04-21T16:37:45.892Z,-23314.97
2024-04-21T16:39:51.050Z,-23323.56
2024-04-21T16:41:53.396Z,-23314.81
2024-04-21T16:43:55.681Z,-23302.88
2024-04-21T16:45:58.050Z,-23302.56
2024-04-21T16:48:06.219Z,-23303.81
2024-04-21T16:50:09.391Z,-23306.22
2024-04-21T16:52:12.144Z,-23299.84
2024-04-21T16:54:14.573Z,-23293.31
2024-04-21T16:56:23.898Z,-23304.94
2024-04-21T16:58:26.906Z,-23298.41
2024-04-21T17:00:30.492Z,-23300.00
2024-04-21T17:02:33.088Z,-23299.03
2024-04-21T17:04:37.156Z,-23299.03
2024-04-21T17:06:44.566Z,-23301.44
2024-04-21T17:08:47.431Z,-23296.81
2024-04-21T17:10:49.867Z,-23296.03
2024-04-21T17:12:54.487Z,-23292.34
2024-04-21T17:14:56.403Z,-23288.84
2024-04-21T17:16:58.279Z,-23288.38
2024-04-21T17:19:00.075Z,-23283.44
2024-04-21T17:21:02.064Z,-23278.03
2024-04-21T17:23:07.678Z,-23273.88
2024-04-21T17:25:10.836Z,-23283.75
2024-04-21T17:27:12.705Z,-23289.81
2024-04-21T17:29:17.129Z,-23279.94
2024-04-21T17:31:18.973Z,-23281.84
2024-04-21T17:33:20.965Z,-23287.91
2024-04-21T17:35:22.872Z,-23283.13
2024-04-21T17:37:24.638Z,-23287.25
2024-04-21T17:39:26.517Z,-23287.56
2024-04-21T17:41:28.333Z,-23280.56
2024-04-21T17:43:30.132Z,-23275.16
2024-04-21T17:45:34.563Z,-23273.22
2024-04-21T17:47:36.527Z,-23275.16
2024-04-21T17:49:38.579Z,-23281.84
2024-04-21T17:51:40.385Z,-23276.44
2024-04-21T17:53:42.216Z,-23274.34
2024-04-21T17:55:44.330Z,-23276.44
2024-04-21T17:57:47.721Z,-23281.38
2024-04-21T17:59:49.547Z,-23279.13
2024-04-21T18:01:54.093Z,-23272.28
2024-04-21T18:03:55.996Z,-23268.13
2024-04-21T18:05:57.820Z,-23273.22
2024-04-21T18:07:59.662Z,-23281.38
2024-04-21T18:10:03.898Z,-23275.47
2024-04-21T18:12:06.432Z,-23274.81
2024-04-21T18:14:08.233Z,-23268.78
2024-04-21T18:16:10.077Z,-23276.44
2024-04-21T18:18:14.703Z,-23264.31
2024-04-21T18:20:16.570Z,-23270.03
2024-04-21T18:22:18.468Z,-23277.69
2024-04-21T18:24:20.483Z,-23268.94
2024-04-21T18:26:22.236Z,-23267.19
2024-04-21T18:28:24.168Z,-23269.72
2024-04-21T18:30:26.270Z,-23273.22
2024-04-21T18:32:28.191Z,-23264.16
2024-04-21T18:34:32.852Z,-23267.19
2024-04-21T18:36:34.713Z,-23268.13
2024-04-21T18:38:36.483Z,-23275.00
2024-04-21T18:40:40.647Z,-23274.81
2024-04-21T18:42:42.504Z,-23278.34
2024-04-21T18:44:44.506Z,-23273.22
2024-04-21T18:46:46.372Z,-23278.97
2024-04-21T18:48:48.254Z,-23271.66
2024-04-21T18:50:52.658Z,-23278.03
2024-04-21T18:52:54.404Z,-23272.28
2024-04-21T18:54:56.157Z,-23277.69
2024-04-21T18:56:57.941Z,-23278.50
2024-04-21T18:58:59.719Z,-23280.88
2024-04-21T19:01:04.764Z,-23274.81
2024-04-21T19:03:06.788Z,-23274.19
2024-04-21T19:05:08.698Z,-23266.22
2024-04-21T19:07:13.122Z,-23274.81
2024-04-21T19:09:15.508Z,-23274.19
2024-04-21T19:11:17.942Z,-23271.31
2024-04-21T19:13:20.315Z,-22751.53
2024-04-21T19:15:22.633Z,-14849.38
2024-04-21T19:17:25.060Z,-7291.22
2024-04-21T19:19:27.495Z,-7220.34
2024-04-21T19:21:29.867Z,-93.13
2024-04-21T19:23:35.330Z,7633.31
2024-04-21T19:25:37.354Z,14374.59
2024-04-21T19:27:39.219Z,20281.69
2024-04-21T19:29:40.942Z,24622.00
2024-04-21T19:31:42.859Z,20794.69
2024-04-21T19:33:44.684Z,21583.97
2024-04-21T19:35:46.454Z,25586.56
2024-04-21T19:37:48.234Z,24758.56
2024-04-21T19:39:52.698Z,28169.88
2024-04-21T19:41:54.730Z,31678.78
2024-04-21T19:43:56.543Z,30894.53
2024-04-21T19:46:00.384Z,27786.53
2024-04-21T19:48:02.377Z,26093.13
2024-04-21T19:50:04.766Z,27446.28
2024-04-21T19:52:06.699Z,25176.31
2024-04-21T19:54:13.238Z,25583.41
2024-04-21T19:56:24.780Z,21536.19
2024-04-21T19:58:26.585Z,18129.41
2024-04-21T20:00:28.394Z,15881.94
2024-04-21T20:02:30.241Z,16705.94
2024-04-21T20:04:32.914Z,16791.28
2024-04-21T20:06:34.774Z,18602.66
2024-04-21T20:08:36.596Z,21789.56
2024-04-21T20:10:38.423Z,23647.78
2024-04-21T20:12:42.816Z,21375.69
2024-04-21T20:14:44.627Z,19855.88
2024-04-21T20:16:46.637Z,20367.44
2024-04-21T20:18:48.423Z,22604.59
2024-04-21T20:20:59.874Z,24180.56
2024-04-21T20:23:01.680Z,24960.84
2024-04-21T20:25:03.632Z,25506.66
2024-04-21T20:27:05.655Z,24698.44
2024-04-21T20:29:10.151Z,25179.47
2024-04-21T20:31:12.061Z,23593.03
2024-04-21T20:33:13.965Z,25637.06
2024-04-21T20:35:15.996Z,22049.50
2024-04-21T20:37:17.933Z,23419.88
2024-04-21T20:39:19.805Z,24423.53
2024-04-21T20:41:21.717Z,19587.75
2024-04-21T20:43:23.591Z,18893.72
2024-04-21T20:45:28.009Z,20682.34
2024-04-21T20:47:29.962Z,23465.31
2024-04-21T20:49:31.939Z,24534.78
2024-04-21T20:51:33.832Z,23548.81
2024-04-21T20:53:35.596Z,25297.63
2024-04-21T20:55:38.137Z,25710.06
2024-04-21T20:57:40.135Z,25819.94
2024-04-21T20:59:41.935Z,24863.09
2024-04-21T21:01:46.366Z,25098.69
2024-04-21T21:03:48.287Z,26288.66
2024-04-21T21:05:50.122Z,26785.06
2024-04-21T21:07:51.866Z,29151.97
2024-04-21T21:09:53.727Z,29669.00
2024-04-21T21:11:55.539Z,29132.81
2024-04-21T21:13:57.343Z,29922.31
2024-04-21T21:15:59.195Z,29219.72
2024-04-21T21:18:04.187Z,27771.81
2024-04-21T21:20:06.992Z,29055.28
2024-04-21T21:22:08.914Z,26161.63
2024-04-21T21:24:10.726Z,25692.13
2024-04-21T21:26:12.557Z,25781.59
2024-04-21T21:28:14.489Z,23925.53
2024-04-21T21:30:16.500Z,20490.31
2024-04-21T21:32:18.360Z,17306.94
2024-04-21T21:34:22.920Z,17974.91
2024-04-21T21:36:24.822Z,16225.25
2024-04-21T21:38:28.141Z,14950.88
2024-04-21T21:40:30.099Z,12970.06
2024-04-21T21:42:31.936Z,10893.97
2024-04-21T21:44:33.710Z,10641.47
2024-04-21T21:46:35.735Z,10020.19
2024-04-21T21:48:37.658Z,10990.47
2024-04-21T21:50:42.855Z,13609.16
2024-04-21T21:52:44.725Z,10380.72
2024-04-21T21:54:46.471Z,7073.16
2024-04-21T21:56:48.321Z,6265.75
2024-04-21T21:58:50.095Z,5895.78
2024-04-21T22:00:51.936Z,2450.97
2024-04-21T22:02:53.779Z,-174.22
2024-04-21T22:04:55.574Z,-6212.34
2024-04-21T22:06:59.976Z,-12328.13
2024-04-21T22:09:01.859Z,-16881.84
2024-04-21T22:11:04.247Z,-21397.41
2024-04-21T22:13:06.321Z,-22543.72
2024-04-21T22:15:08.442Z,-23253.16
2024-04-21T22:17:10.206Z,-23254.09
2024-04-21T22:19:12.092Z,-21944.06
2024-04-21T22:21:13.916Z,-19856.47
2024-04-21T22:23:18.355Z,-20310.25
2024-04-21T22:25:20.523Z,-23253.31
2024-04-21T22:27:22.488Z,-23254.09
2024-04-21T22:29:24.360Z,-23251.22
2024-04-21T22:31:26.204Z,-23254.91
2024-04-21T22:33:28.100Z,-23253.16
2024-04-21T22:35:29.998Z,-23250.91
2024-04-21T22:37:31.806Z,-23252.19
2024-04-21T22:39:36.375Z,-23251.56
2024-04-21T22:41:38.156Z,-23250.28
2024-04-21T22:43:40.075Z,-23251.72
2024-04-21T22:45:41.852Z,-23251.56
2024-04-21T22:47:43.709Z,-23249.47
2024-04-21T22:49:45.587Z,-23248.38
2024-04-21T22:51:47.373Z,-23247.88
2024-04-21T22:53:49.138Z,-23250.13
2024-04-21T22:55:54.803Z,-23252.66
2024-04-21T22:57:56.591Z,-23253.31
2024-04-21T22:59:58.462Z,-23249.63
2024-04-21T23:02:00.398Z,-23252.50
2024-04-21T23:04:02.308Z,-23250.44
2024-04-21T23:06:04.961Z,-23250.44
2024-04-21T23:08:07.853Z,-23250.91
2024-04-21T23:10:09.808Z,-23255.06
2024-04-21T23:12:14.272Z,-23250.91
2024-04-21T23:14:16.069Z,-23249.78
2024-04-21T23:16:17.893Z,-23251.06
2024-04-21T23:18:19.800Z,-23252.50
2024-04-21T23:20:22.809Z,-23255.38
2024-04-21T23:22:24.665Z,-23257.94
2024-04-21T23:24:26.452Z,-23253.16
2024-04-21T23:26:28.226Z,-23254.44
2024-04-21T23:28:32.705Z,-23252.50
2024-04-21T23:30:34.548Z,-23251.06
2024-04-21T23:32:36.662Z,-23251.56
2024-04-21T23:34:38.978Z,-23252.50